createdAt,value
2023-05-01T00:08:26.050Z,5.55
2023-05-01T00:13:50.762Z,6.43
2023-05-01T00:19:06.103Z,6.00
2023-05-01T00:24:12.544Z,6.77
2023-05-01T00:29:25.133Z,7.25
2023-05-01T00:34:41.370Z,6.70
2023-05-01T00:39:45.838Z,6.77
2023-05-01T00:44:59.227Z,6.53
2023-05-01T00:50:03.798Z,6.23
2023-05-01T00:55:12.155Z,6.70
2023-05-01T01:00:35.577Z,6.60
2023-05-01T01:11:33.960Z,6.85
2023-05-01T01:16:50.348Z,6.37
2023-05-01T01:22:10.724Z,6.68
2023-05-01T01:27:58.889Z,6.25
2023-05-01T01:33:41.864Z,6.30
2023-05-01T01:39:08.317Z,6.93
2023-05-01T01:44:32.651Z,6.00
2023-05-01T01:49:53.028Z,6.40
2023-05-01T01:55:16.131Z,7.32
2023-05-01T02:00:29.644Z,8.48
2023-05-01T02:05:37.059Z,6.97
2023-05-01T02:10:46.145Z,7.53
2023-05-01T02:15:56.310Z,7.80
2023-05-01T02:21:07.352Z,7.40
2023-05-01T02:26:23.166Z,7.57
2023-05-01T02:31:39.258Z,7.50
2023-05-01T02:36:49.567Z,8.10
2023-05-01T02:42:02.299Z,6.70
2023-05-01T02:47:20.719Z,8.13
2023-05-01T02:52:33.747Z,7.57
2023-05-01T02:58:03.139Z,8.70
2023-05-01T03:03:08.463Z,8.83
2023-05-01T03:08:19.319Z,7.90
2023-05-01T03:13:26.918Z,7.35
2023-05-01T03:18:37.410Z,8.68
2023-05-01T03:23:43.933Z,9.57
2023-05-01T03:28:53.261Z,9.00
2023-05-01T03:34:14.892Z,9.32
2023-05-01T03:39:20.269Z,9.93
2023-05-01T03:44:48.265Z,10.27
2023-05-01T03:49:56.186Z,10.73
2023-05-01T03:55:09.519Z,11.47
2023-05-01T04:00:31.895Z,10.77
2023-05-01T04:05:37.828Z,11.82
2023-05-01T04:10:41.285Z,11.20
2023-05-01T04:15:50.773Z,11.75
2023-05-01T04:21:06.165Z,10.63
2023-05-01T04:26:14.085Z,11.52
2023-05-01T04:31:23.067Z,13.18
2023-05-01T04:36:38.397Z,12.00
2023-05-01T04:41:47.114Z,11.90
2023-05-01T04:47:02.031Z,10.70
2023-05-01T04:52:09.448Z,12.93
2023-05-01T04:57:43.757Z,14.10
2023-05-01T05:02:52.447Z,11.05
2023-05-01T05:07:56.907Z,11.38
2023-05-01T05:13:21.600Z,10.57
2023-05-01T05:18:36.964Z,10.50
2023-05-01T05:23:48.400Z,11.02
2023-05-01T05:28:55.812Z,12.40
2023-05-01T05:34:02.874Z,10.38
2023-05-01T05:39:07.231Z,10.60
2023-05-01T05:44:12.539Z,11.40
2023-05-01T05:49:20.699Z,11.73
2023-05-01T05:54:29.816Z,8.60
2023-05-01T05:59:32.956Z,9.05
2023-05-01T06:04:41.240Z,9.53
2023-05-01T06:09:45.194Z,5.75
2023-05-01T06:15:08.627Z,4.75
2023-05-01T06:20:36.099Z,4.20
2023-05-01T06:25:40.598Z,3.63
2023-05-01T06:31:02.585Z,3.43
2023-05-01T06:36:17.639Z,4.65
2023-05-01T06:46:44.857Z,3.80
2023-05-01T06:51:57.134Z,3.80
2023-05-01T06:57:09.865Z,3.17
2023-05-01T07:02:15.991Z,2.97
2023-05-01T07:07:25.326Z,3.42
2023-05-01T07:12:35.466Z,3.20
2023-05-01T07:17:39.136Z,2.85
2023-05-01T07:22:47.259Z,3.40
2023-05-01T07:27:55.156Z,2.55
2023-05-01T07:33:03.624Z,2.53
2023-05-01T07:38:09.197Z,2.57
2023-05-01T07:43:15.625Z,2.78
2023-05-01T07:48:24.043Z,3.35
2023-05-01T07:53:37.581Z,3.10
2023-05-01T07:58:53.757Z,3.13
2023-05-01T08:03:59.633Z,3.83
2023-05-01T08:09:24.867Z,3.10
2023-05-01T08:14:29.148Z,3.10
2023-05-01T08:19:36.051Z,4.03
2023-05-01T08:24:41.698Z,3.63
2023-05-01T08:29:50.414Z,3.25
2023-05-01T08:34:59.953Z,3.30
2023-05-01T08:40:15.061Z,2.57
2023-05-01T08:45:31.886Z,2.22
2023-05-01T08:50:39.805Z,3.10
2023-05-01T08:55:50.946Z,3.00
2023-05-01T09:01:15.245Z,2.45
2023-05-01T09:06:25.721Z,1.70
2023-05-01T09:11:36.221Z,3.07
2023-05-01T09:16:44.166Z,3.15
2023-05-01T09:22:02.715Z,4.37
2023-05-01T09:27:19.620Z,3.17
2023-05-01T09:32:26.381Z,3.90
2023-05-01T09:37:36.192Z,3.70
2023-05-01T09:43:02.346Z,3.40
2023-05-01T09:48:10.127Z,4.45
2023-05-01T09:53:18.903Z,3.50
2023-05-01T09:58:39.984Z,2.30
2023-05-01T10:03:46.898Z,3.15
2023-05-01T10:08:53.019Z,3.00
2023-05-01T10:14:17.319Z,3.20
2023-05-01T10:19:31.105Z,2.85
2023-05-01T10:24:44.219Z,2.65
2023-05-01T10:29:57.473Z,3.07
2023-05-01T10:35:08.027Z,3.00
2023-05-01T10:40:51.757Z,3.03
2023-05-01T10:46:32.735Z,2.23
2023-05-01T10:52:10.256Z,2.10
2023-05-01T10:57:46.219Z,2.33
2023-05-01T11:02:52.389Z,1.93
2023-05-01T11:08:38.506Z,2.40
2023-05-01T11:14:04.094Z,1.95
2023-05-01T11:19:48.240Z,2.53
2023-05-01T11:24:52.490Z,2.10
2023-05-01T11:35:56.041Z,1.90
2023-05-01T11:41:04.650Z,2.10
2023-05-01T11:46:08.399Z,1.30
2023-05-01T11:51:19.321Z,1.63
2023-05-01T11:56:27.750Z,1.85
2023-05-01T12:01:38.174Z,2.03
2023-05-01T12:06:52.380Z,1.70
2023-05-01T12:12:01.966Z,1.55
2023-05-01T12:17:12.024Z,2.20
2023-05-01T12:22:25.119Z,2.77
2023-05-01T12:27:29.455Z,2.25
2023-05-01T12:32:35.434Z,2.33
2023-05-01T12:37:42.317Z,2.33
2023-05-01T12:42:57.279Z,2.03
2023-05-01T12:48:03.769Z,2.65
2023-05-01T12:53:16.072Z,2.70
2023-05-01T12:58:26.139Z,2.13
2023-05-01T13:03:44.934Z,2.22
2023-05-01T13:09:07.306Z,1.70
2023-05-01T13:14:14.898Z,2.37
2023-05-01T13:19:28.455Z,2.33
2023-05-01T13:24:45.067Z,1.80
2023-05-01T13:29:54.442Z,2.67
2023-05-01T13:35:24.089Z,1.93
2023-05-01T13:40:35.566Z,2.15
2023-05-01T13:45:44.238Z,2.22
2023-05-01T13:50:48.481Z,1.80
2023-05-01T13:55:57.424Z,2.22
2023-05-01T14:01:02.362Z,2.03
2023-05-01T14:06:15.182Z,2.37
2023-05-01T14:11:22.314Z,2.80
2023-05-01T14:16:29.693Z,1.85
2023-05-01T14:21:48.081Z,2.30
2023-05-01T14:27:05.155Z,1.77
2023-05-01T14:32:16.166Z,2.13
2023-05-01T14:37:21.546Z,2.10
2023-05-01T14:42:27.758Z,2.03
2023-05-01T14:47:36.798Z,2.40
2023-05-01T14:52:42.681Z,2.60
2023-05-01T14:57:49.895Z,3.03
2023-05-01T15:02:57.559Z,2.15
2023-05-01T15:08:10.860Z,1.88
2023-05-01T15:13:18.489Z,2.40
2023-05-01T15:18:24.775Z,1.90
2023-05-01T15:23:33.636Z,1.88
2023-05-01T15:28:45.930Z,1.92
2023-05-01T15:33:51.246Z,1.73
2023-05-01T15:39:06.490Z,1.73
2023-05-01T15:44:14.160Z,2.20
2023-05-01T15:49:29.258Z,2.23
2023-05-01T15:54:49.776Z,2.13
2023-05-01T15:59:54.728Z,1.77
2023-05-01T16:05:06.838Z,2.23
2023-05-01T16:10:22.796Z,1.90
2023-05-01T16:15:34.042Z,1.77
2023-05-01T16:20:44.516Z,1.67
2023-05-01T16:25:51.113Z,1.93
2023-05-01T16:30:59.363Z,1.60
2023-05-01T16:36:04.868Z,1.25
2023-05-01T16:41:10.320Z,1.77
2023-05-01T16:46:42.795Z,1.70
2023-05-01T16:52:00.300Z,1.77
2023-05-01T16:57:08.323Z,2.00
2023-05-01T17:02:18.688Z,1.60
2023-05-01T17:07:27.439Z,1.58
2023-05-01T17:12:30.994Z,1.33
2023-05-01T17:17:37.963Z,1.53
2023-05-01T17:22:49.048Z,1.52
2023-05-01T17:28:27.864Z,1.48
2023-05-01T17:33:33.630Z,1.57
2023-05-01T17:38:54.665Z,1.45
2023-05-01T17:44:05.639Z,1.60
2023-05-01T17:49:20.021Z,1.77
2023-05-01T17:54:28.537Z,2.30
2023-05-01T17:59:49.063Z,2.70
2023-05-01T18:05:05.792Z,2.50
2023-05-01T18:15:46.422Z,2.42
2023-05-01T18:21:02.930Z,2.38
2023-05-01T18:26:14.306Z,2.50
2023-05-01T18:31:21.179Z,2.28
2023-05-01T18:36:42.127Z,2.38
2023-05-01T18:41:47.368Z,2.00
2023-05-01T18:47:02.285Z,2.20
2023-05-01T18:52:09.365Z,2.63
2023-05-01T18:57:16.436Z,2.42
2023-05-01T19:02:27.463Z,2.60
2023-05-01T19:07:42.153Z,2.30
2023-05-01T19:12:48.011Z,3.20
2023-05-01T19:17:57.076Z,3.30
2023-05-01T19:23:18.876Z,3.95
2023-05-01T19:28:25.572Z,3.22
2023-05-01T19:33:36.220Z,4.37
2023-05-01T19:38:45.138Z,5.90
2023-05-01T19:44:06.807Z,6.63
2023-05-01T19:49:17.576Z,6.20
2023-05-01T19:54:34.222Z,5.07
2023-05-01T19:59:50.969Z,4.75
2023-05-01T20:04:55.905Z,4.80
2023-05-01T20:10:15.156Z,5.30
2023-05-01T20:15:23.462Z,5.68
2023-05-01T20:20:34.978Z,5.53
2023-05-01T20:25:52.606Z,5.17
2023-05-01T20:31:01.605Z,6.30
2023-05-01T20:36:35.275Z,6.43
2023-05-01T20:41:40.406Z,7.27
2023-05-01T20:46:45.429Z,6.40
2023-05-01T20:52:15.911Z,5.90
2023-05-01T20:57:41.066Z,6.40
2023-05-01T21:02:57.176Z,6.78
2023-05-01T21:08:31.781Z,5.83
2023-05-01T21:13:39.707Z,6.20
2023-05-01T21:19:09.939Z,6.47
2023-05-01T21:24:38.951Z,5.93
2023-05-01T21:29:58.851Z,5.60
2023-05-01T21:35:07.381Z,5.57
2023-05-01T21:40:27.245Z,5.65
2023-05-01T21:45:46.449Z,6.20
2023-05-01T21:50:55.418Z,6.43
2023-05-01T21:56:07.116Z,5.90
2023-05-01T22:01:18.245Z,4.53
2023-05-01T22:06:34.048Z,4.28
2023-05-01T22:11:38.375Z,3.50
2023-05-01T22:16:49.364Z,3.40
2023-05-01T22:22:06.507Z,3.83
2023-05-01T22:27:14.999Z,4.07
2023-05-01T22:32:23.901Z,3.70
2023-05-01T22:37:29.608Z,3.50
2023-05-01T22:42:42.425Z,2.70
2023-05-01T22:48:04.325Z,3.37
2023-05-01T22:53:31.374Z,3.08
2023-05-01T22:58:36.712Z,2.97
2023-05-01T23:03:45.245Z,3.00
2023-05-01T23:08:53.687Z,3.35
2023-05-01T23:14:04.766Z,3.60
2023-05-01T23:19:28.566Z,3.43
2023-05-01T23:24:45.290Z,3.28
2023-05-01T23:30:00.199Z,3.47
2023-05-01T23:40:42.713Z,3.55
2023-05-01T23:45:46.957Z,3.10
2023-05-01T23:51:07.852Z,3.23
2023-05-01T23:56:13.437Z,3.53
